Time,TemperatureF,DewpointF,PressureIn,WindDirection,WindDirectionDegrees,WindSpeedMPH,WindSpeedGustMPH,Humidity,HourlyPrecipIn,Conditions,Clouds,dailyrainin,SoftwareType,DateUTC
2013-04-10 00:22:00,60.6,49.3,30.15,SE,135,0.0,0.0,66,0.00,,,0.00,WUHU21623XXSP,2013-04-10 04:22:00,
2013-04-10 01:22:00,58.8,48.8,30.14,SE,135,0.0,0.0,69,0.00,,,0.00,WUHU21623XXSP,2013-04-10 05:22:00,
2013-04-10 02:13:00,57.9,48.6,30.14,SE,135,0.0,0.0,71,0.00,,,1.96,WUHU21623XXSP,2013-04-10 06:13:00,
2013-04-10 02:18:00,57.7,48.7,30.13,SE,135,0.0,0.0,72,0.00,,,1.96,WUHU21623XXSP,2013-04-10 06:18:00,
2013-04-10 02:23:00,57.6,48.6,30.13,SE,135,0.0,0.0,72,0.00,,,1.96,WUHU21623XXSP,2013-04-10 06:23:00,
2013-04-10 02:28:00,57.4,48.4,30.13,SE,135,0.0,0.0,72,0.00,,,1.96,WUHU21623XXSP,2013-04-10 06:28:00,
2013-04-10 02:33:00,57.0,48.0,30.13,SE,135,0.0,0.0,72,0.00,,,1.96,WUHU21623XXSP,2013-04-10 06:33:00,
2013-04-10 02:38:00,56.8,47.9,30.13,SE,135,0.0,0.0,72,0.00,,,1.96,WUHU21623XXSP,2013-04-10 06:38:00,
2013-04-10 02:43:00,56.8,48.2,30.13,SE,135,0.0,0.0,73,0.00,,,1.96,WUHU21623XXSP,2013-04-10 06:43:00,
2013-04-10 02:48:00,56.5,47.9,30.12,SE,135,0.0,0.0,73,0.00,,,1.96,WUHU21623XXSP,2013-04-10 06:48:00,
2013-04-10 02:53:00,56.5,47.9,30.12,SE,135,0.0,0.0,73,0.00,,,1.96,WUHU21623XXSP,2013-04-10 06:53:00,
2013-04-10 02:58:00,56.5,47.9,30.12,SE,135,0.0,0.0,73,0.00,,,1.96,WUHU21623XXSP,2013-04-10 06:58:00,
2013-04-10 03:03:00,56.5,48.2,30.12,SE,135,0.0,0.0,74,0.00,,,1.96,WUHU21623XXSP,2013-04-10 07:03:00,
2013-04-10 03:08:00,56.5,48.6,30.12,SE,135,0.0,0.0,75,0.00,,,1.96,WUHU21623XXSP,2013-04-10 07:08:00,
2013-04-10 03:13:00,56.3,48.1,30.12,SE,135,0.0,0.0,74,0.00,,,1.96,WUHU21623XXSP,2013-04-10 07:13:00,
2013-04-10 03:18:00,56.1,47.9,30.12,SE,135,0.0,0.0,74,0.00,,,1.96,WUHU21623XXSP,2013-04-10 07:18:00,
2013-04-10 03:23:00,56.1,48.3,30.12,SE,135,0.0,0.0,75,0.00,,,1.96,WUHU21623XXSP,2013-04-10 07:23:00,
2013-04-10 03:28:00,55.9,48.3,30.11,SE,135,0.0,0.0,75,0.00,,,1.96,WUHU21623XXSP,2013-04-10 07:28:00,
2013-04-10 03:33:00,55.9,48.1,30.11,SE,135,0.0,0.0,75,0.00,,,1.96,WUHU21623XXSP,2013-04-10 07:33:00,
2013-04-10 03:38:00,55.6,47.7,30.11,SE,135,0.0,0.0,75,0.00,,,1.96,WUHU21623XXSP,2013-04-10 07:38:00,
2013-04-10 03:43:00,55.4,47.9,30.11,SE,135,0.0,0.0,76,0.00,,,1.96,WUHU21623XXSP,2013-04-10 07:43:00,
2013-04-10 03:48:00,55.2,47.7,30.10,SE,135,0.0,0.0,76,0.00,,,1.96,WUHU21623XXSP,2013-04-10 07:48:00,
2013-04-10 03:53:00,55.2,47.7,30.10,SE,135,0.0,0.0,76,0.00,,,1.96,WUHU21623XXSP,2013-04-10 07:53:00,
2013-04-10 03:58:00,55.2,47.7,30.10,SE,135,0.0,0.0,76,0.00,,,1.96,WUHU21623XXSP,2013-04-10 07:58:00,
2013-04-10 04:03:00,55.0,47.6,30.10,SE,135,0.0,0.0,76,0.00,,,1.96,WUHU21623XXSP,2013-04-10 08:03:00,
2013-04-10 04:08:00,54.9,47.4,30.10,SE,135,0.0,0.0,76,0.00,,,1.96,WUHU21623XXSP,2013-04-10 08:08:00,
2013-04-10 04:13:00,54.7,47.6,30.10,SE,135,0.0,0.0,77,0.00,,,1.96,WUHU21623XXSP,2013-04-10 08:13:00,
2013-04-10 04:18:00,54.5,47.4,30.10,SE,135,0.0,0.0,77,0.00,,,1.96,WUHU21623XXSP,2013-04-10 08:18:00,
2013-04-10 04:23:00,54.3,47.2,30.10,SE,135,0.0,0.0,77,0.00,,,1.96,WUHU21623XXSP,2013-04-10 08:23:00,
2013-04-10 04:29:00,54.3,47.2,30.10,SE,135,0.0,0.0,77,0.00,,,1.96,WUHU21623XXSP,2013-04-10 08:29:00,
2013-04-10 04:34:00,54.1,47.1,30.11,SE,135,0.0,0.0,77,0.00,,,1.96,WUHU21623XXSP,2013-04-10 08:34:00,
2013-04-10 04:39:00,54.0,46.9,30.10,SE,135,0.0,0.0,77,0.00,,,1.96,WUHU21623XXSP,2013-04-10 08:39:00,
2013-04-10 04:44:00,53.8,47.1,30.11,SE,135,0.0,0.0,78,0.00,,,1.96,WUHU21623XXSP,2013-04-10 08:44:00,
2013-04-10 04:49:00,53.8,47.3,30.11,SE,135,0.0,0.0,78,0.00,,,1.96,WUHU21623XXSP,2013-04-10 08:49:00,
2013-04-10 04:54:00,53.8,47.1,30.11,SE,135,0.0,0.0,78,0.00,,,1.96,WUHU21623XXSP,2013-04-10 08:54:00,
2013-04-10 04:59:00,53.8,47.1,30.11,SE,135,0.0,0.0,78,0.00,,,1.96,WUHU21623XXSP,2013-04-10 08:59:00,
2013-04-10 05:04:00,53.4,46.8,30.11,SE,135,0.0,0.0,78,0.00,,,1.96,WUHU21623XXSP,2013-04-10 09:04:00,
2013-04-10 05:09:00,53.4,46.8,30.11,SE,135,0.0,0.0,78,0.00,,,1.96,WUHU21623XXSP,2013-04-10 09:09:00,
2013-04-10 05:14:00,53.2,46.6,30.11,SE,135,0.0,0.0,79,0.00,,,1.96,WUHU21623XXSP,2013-04-10 09:14:00,
2013-04-10 05:19:00,53.2,47.3,30.11,SE,135,0.0,0.0,80,0.00,,,1.96,WUHU21623XXSP,2013-04-10 09:19:00,
2013-04-10 05:24:00,53.2,47.3,30.11,SE,135,0.0,0.0,80,0.00,,,1.96,WUHU21623XXSP,2013-04-10 09:24:00,
2013-04-10 05:29:00,53.2,47.3,30.11,SE,135,0.0,0.0,80,0.00,,,1.96,WUHU21623XXSP,2013-04-10 09:29:00,
2013-04-10 05:34:00,53.2,47.3,30.11,SE,135,0.0,0.0,80,0.00,,,1.96,WUHU21623XXSP,2013-04-10 09:34:00,
2013-04-10 05:39:00,52.9,47.1,30.10,SE,135,0.0,0.0,80,0.00,,,1.96,WUHU21623XXSP,2013-04-10 09:39:00,
2013-04-10 05:44:00,52.9,47.2,30.11,SE,135,0.0,0.0,81,0.00,,,1.96,WUHU21623XXSP,2013-04-10 09:44:00,
2013-04-10 05:49:00,52.9,47.2,30.10,SE,135,0.0,0.0,81,0.00,,,1.96,WUHU21623XXSP,2013-04-10 09:49:00,
2013-04-10 05:54:00,52.9,47.2,30.10,SE,135,0.0,0.0,81,0.00,,,1.96,WUHU21623XXSP,2013-04-10 09:54:00,
2013-04-10 05:59:00,52.9,47.2,30.10,SE,135,0.0,0.0,81,0.00,,,1.96,WUHU21623XXSP,2013-04-10 09:59:00,
2013-04-10 06:04:00,52.7,47.1,30.10,SE,135,0.0,0.0,81,0.00,,,1.96,WUHU21623XXSP,2013-04-10 10:04:00,
2013-04-10 06:09:00,52.5,46.9,30.10,SE,135,0.0,0.0,81,0.00,,,1.96,WUHU21623XXSP,2013-04-10 10:09:00,
2013-04-10 06:14:00,52.5,46.9,30.10,SE,135,0.0,0.0,81,0.00,,,1.96,WUHU21623XXSP,2013-04-10 10:14:00,
2013-04-10 06:19:00,52.3,46.7,30.11,SE,135,0.0,0.0,81,0.00,,,1.96,WUHU21623XXSP,2013-04-10 10:19:00,
2013-04-10 06:24:00,52.3,46.7,30.10,SE,135,0.0,0.0,81,0.00,,,1.96,WUHU21623XXSP,2013-04-10 10:24:00,
2013-04-10 06:29:00,52.3,47.0,30.10,SE,135,0.0,0.0,82,0.00,,,1.96,WUHU21623XXSP,2013-04-10 10:29:00,
2013-04-10 06:34:00,52.2,46.8,30.10,SE,135,0.0,0.0,82,0.00,,,1.96,WUHU21623XXSP,2013-04-10 10:34:00,
2013-04-10 06:39:00,52.0,46.3,30.10,SE,135,0.0,0.0,81,0.00,,,1.96,WUHU21623XXSP,2013-04-10 10:39:00,
2013-04-10 06:44:00,52.0,46.3,30.10,SE,135,0.0,0.0,81,0.00,,,1.96,WUHU21623XXSP,2013-04-10 10:44:00,
2013-04-10 06:49:00,51.6,46.3,30.10,SE,135,0.0,0.0,82,0.00,,,1.96,WUHU21623XXSP,2013-04-10 10:49:00,
2013-04-10 06:54:00,51.6,46.3,30.10,SE,135,0.0,0.0,82,0.00,,,1.96,WUHU21623XXSP,2013-04-10 10:54:00,
2013-04-10 06:59:00,51.6,46.3,30.10,SE,135,0.0,0.0,82,0.00,,,1.96,WUHU21623XXSP,2013-04-10 10:59:00,
2013-04-10 07:04:00,51.4,46.1,30.11,SE,135,0.0,0.0,82,0.00,,,1.96,WUHU21623XXSP,2013-04-10 11:04:00,
2013-04-10 07:09:00,51.4,46.1,30.11,SE,135,0.0,0.0,82,0.00,,,1.96,WUHU21623XXSP,2013-04-10 11:09:00,
2013-04-10 07:14:00,51.4,46.1,30.11,SE,135,0.0,0.0,82,0.00,,,1.96,WUHU21623XXSP,2013-04-10 11:14:00,
2013-04-10 07:19:00,51.4,46.1,30.11,SE,135,0.0,0.0,82,0.00,,,1.96,WUHU21623XXSP,2013-04-10 11:19:00,
2013-04-10 07:24:00,51.3,45.9,30.11,SE,135,0.0,0.0,82,0.00,,,1.96,WUHU21623XXSP,2013-04-10 11:24:00,
2013-04-10 07:30:00,51.3,45.9,30.11,SE,135,0.0,0.0,82,0.00,,,1.96,WUHU21623XXSP,2013-04-10 11:30:00,
2013-04-10 07:35:00,51.4,46.4,30.12,SE,135,0.0,0.0,83,0.00,,,1.96,WUHU21623XXSP,2013-04-10 11:35:00,
2013-04-10 07:40:00,51.4,46.4,30.12,SE,135,0.0,0.0,83,0.00,,,1.96,WUHU21623XXSP,2013-04-10 11:40:00,
2013-04-10 07:45:00,51.6,46.6,30.12,SE,135,0.0,0.0,83,0.00,,,1.96,WUHU21623XXSP,2013-04-10 11:45:00,
2013-04-10 07:50:00,52.0,47.0,30.12,SE,135,0.0,0.0,83,0.00,,,1.96,WUHU21623XXSP,2013-04-10 11:50:00,
2013-04-10 07:55:00,52.3,47.3,30.13,SE,135,0.0,0.0,83,0.00,,,1.96,WUHU21623XXSP,2013-04-10 11:55:00,
2013-04-10 08:00:00,52.9,47.9,30.13,SE,135,0.0,0.0,83,0.00,,,1.96,WUHU21623XXSP,2013-04-10 12:00:00,
2013-04-10 08:05:00,53.2,48.5,30.13,SE,135,0.0,0.0,84,0.00,,,1.96,WUHU21623XXSP,2013-04-10 12:05:00,
2013-04-10 08:10:00,53.4,48.7,30.13,SE,135,0.0,0.0,84,0.00,,,1.96,WUHU21623XXSP,2013-04-10 12:10:00,
2013-04-10 08:15:00,54.0,48.9,30.12,SE,135,0.0,0.0,83,0.00,,,1.96,WUHU21623XXSP,2013-04-10 12:15:00,
2013-04-10 08:20:00,54.5,49.4,30.13,SE,135,0.0,0.0,83,0.00,,,1.96,WUHU21623XXSP,2013-04-10 12:20:00,
2013-04-10 08:25:00,55.0,49.9,30.12,SE,135,0.0,0.0,83,0.00,,,1.96,WUHU21623XXSP,2013-04-10 12:25:00,
2013-04-10 08:30:00,55.6,50.1,30.13,SE,135,0.0,0.0,82,0.00,,,1.96,WUHU21623XXSP,2013-04-10 12:30:00,
2013-04-10 08:35:00,55.9,50.5,30.13,SE,135,0.0,0.0,82,0.00,,,1.96,WUHU21623XXSP,2013-04-10 12:35:00,
2013-04-10 08:40:00,56.3,50.6,30.13,SE,135,0.0,0.0,82,0.00,,,1.96,WUHU21623XXSP,2013-04-10 12:40:00,
2013-04-10 08:45:00,57.4,51.9,30.13,SE,135,0.0,0.0,82,0.00,,,1.96,WUHU21623XXSP,2013-04-10 12:45:00,
2013-04-10 08:50:00,57.9,52.4,30.13,SE,135,0.0,0.0,82,0.00,,,1.96,WUHU21623XXSP,2013-04-10 12:50:00,
2013-04-10 08:55:00,58.6,52.5,30.13,SE,135,0.0,0.0,81,0.00,,,1.96,WUHU21623XXSP,2013-04-10 12:55:00,
2013-04-10 09:00:00,59.4,52.5,30.14,SE,135,0.0,0.0,78,0.00,,,1.96,WUHU21623XXSP,2013-04-10 13:00:00,
2013-04-10 09:05:00,60.1,53.2,30.14,SE,135,0.0,0.0,78,0.00,,,1.96,WUHU21623XXSP,2013-04-10 13:05:00,
2013-04-10 09:10:00,60.6,53.1,30.14,SE,135,0.0,0.0,76,0.00,,,1.96,WUHU21623XXSP,2013-04-10 13:10:00,
2013-04-10 09:15:00,61.7,54.0,30.14,SE,135,0.0,0.0,76,0.00,,,1.96,WUHU21623XXSP,2013-04-10 13:15:00,
2013-04-10 09:20:00,62.4,54.3,30.14,SE,135,0.0,0.0,76,0.00,,,1.96,WUHU21623XXSP,2013-04-10 13:20:00,
2013-04-10 09:25:00,63.0,54.7,30.14,SE,135,0.0,0.0,74,0.00,,,1.96,WUHU21623XXSP,2013-04-10 13:25:00,
2013-04-10 09:30:00,63.1,54.3,30.14,SE,135,0.0,0.0,73,0.00,,,1.96,WUHU21623XXSP,2013-04-10 13:30:00,
2013-04-10 09:35:00,63.3,54.5,30.14,SE,135,0.0,0.0,73,0.00,,,1.96,WUHU21623XXSP,2013-04-10 13:35:00,
2013-04-10 09:40:00,64.0,54.9,30.14,SE,135,0.0,0.0,72,0.00,,,1.96,WUHU21623XXSP,2013-04-10 13:40:00,
2013-04-10 09:45:00,64.6,55.0,30.14,SE,135,0.0,0.0,71,0.00,,,1.96,WUHU21623XXSP,2013-04-10 13:45:00,
2013-04-10 09:50:00,65.1,55.5,30.14,SE,135,0.0,0.0,71,0.00,,,1.96,WUHU21623XXSP,2013-04-10 13:50:00,
2013-04-10 09:55:00,65.3,55.3,30.14,SE,135,0.0,0.0,70,0.00,,,1.96,WUHU21623XXSP,2013-04-10 13:55:00,
2013-04-10 10:00:00,66.0,55.8,30.15,SE,135,0.0,0.0,69,0.00,,,1.96,WUHU21623XXSP,2013-04-10 14:00:00,
2013-04-10 10:05:00,66.4,55.9,30.14,SE,135,0.0,0.0,69,0.00,,,1.96,WUHU21623XXSP,2013-04-10 14:05:00,
2013-04-10 10:11:00,66.7,55.8,30.14,SE,135,0.0,0.0,68,0.00,,,1.96,WUHU21623XXSP,2013-04-10 14:11:00,
2013-04-10 10:16:00,67.3,55.9,30.14,SE,135,0.0,0.0,67,0.00,,,1.96,WUHU21623XXSP,2013-04-10 14:16:00,
2013-04-10 10:21:00,68.2,56.4,30.14,SE,135,0.0,0.0,66,0.00,,,1.96,WUHU21623XXSP,2013-04-10 14:21:00,
2013-04-10 10:26:00,68.9,56.7,30.14,SE,135,0.0,0.0,66,0.00,,,1.96,WUHU21623XXSP,2013-04-10 14:26:00,
2013-04-10 10:31:00,70.3,57.5,30.14,SE,135,0.0,0.0,65,0.00,,,1.96,WUHU21623XXSP,2013-04-10 14:31:00,
2013-04-10 10:36:00,71.2,58.4,30.15,ESE,112,0.0,0.0,64,0.00,,,1.96,WUHU21623XXSP,2013-04-10 14:36:00,
2013-04-10 10:41:00,72.7,58.4,30.15,ENE,67,0.0,0.0,61,0.00,,,1.96,WUHU21623XXSP,2013-04-10 14:41:00,
2013-04-10 10:46:00,73.6,58.8,30.15,ENE,67,0.0,0.0,60,0.00,,,1.96,WUHU21623XXSP,2013-04-10 14:46:00,
2013-04-10 10:51:00,74.3,59.0,30.15,ENE,67,0.0,0.0,59,0.00,,,1.96,WUHU21623XXSP,2013-04-10 14:51:00,
2013-04-10 10:56:00,75.4,59.3,30.15,ENE,67,0.0,0.0,57,0.00,,,1.96,WUHU21623XXSP,2013-04-10 14:56:00,
2013-04-10 11:01:00,76.3,59.9,30.15,ENE,67,0.0,0.0,57,0.00,,,1.96,WUHU21623XXSP,2013-04-10 15:01:00,
2013-04-10 11:06:00,77.2,60.2,30.15,NNE,22,0.0,0.0,56,0.00,,,1.96,WUHU21623XXSP,2013-04-10 15:06:00,
2013-04-10 11:11:00,77.7,60.2,30.15,NW,315,0.0,0.0,55,0.00,,,1.96,WUHU21623XXSP,2013-04-10 15:11:00,
2013-04-10 11:16:00,78.3,60.2,30.15,WNW,292,0.0,0.0,54,0.00,,,1.96,WUHU21623XXSP,2013-04-10 15:16:00,
2013-04-10 11:22:00,78.6,60.4,30.15,WNW,292,0.0,0.0,54,0.00,,,1.96,WUHU21623XXSP,2013-04-10 15:22:00,
2013-04-10 11:27:00,78.6,60.0,30.15,NNW,337,0.0,0.0,53,0.00,,,1.96,WUHU21623XXSP,2013-04-10 15:27:00,
2013-04-10 11:32:00,79.0,59.8,30.15,NE,45,0.0,0.0,52,0.00,,,1.96,WUHU21623XXSP,2013-04-10 15:32:00,
2013-04-10 11:37:00,79.5,59.6,30.14,NE,45,0.0,0.0,51,0.00,,,1.96,WUHU21623XXSP,2013-04-10 15:37:00,
2013-04-10 11:42:00,80.4,60.6,30.14,NE,45,0.0,0.0,51,0.00,,,1.96,WUHU21623XXSP,2013-04-10 15:42:00,
2013-04-10 11:47:00,81.3,60.9,30.14,West,270,0.0,0.0,50,0.00,,,1.96,WUHU21623XXSP,2013-04-10 15:47:00,
2013-04-10 11:52:00,82.6,61.4,30.14,SSE,157,0.0,0.0,49,0.00,,,1.96,WUHU21623XXSP,2013-04-10 15:52:00,
2013-04-10 11:57:00,83.1,61.4,30.14,NE,45,0.0,0.0,48,0.00,,,1.96,WUHU21623XXSP,2013-04-10 15:57:00,
2013-04-10 12:02:00,83.8,61.1,30.13,NE,45,0.0,0.0,47,0.00,,,1.96,WUHU21623XXSP,2013-04-10 16:02:00,
2013-04-10 12:07:00,83.5,60.8,30.13,NE,45,0.0,0.0,47,0.00,,,1.96,WUHU21623XXSP,2013-04-10 16:07:00,
2013-04-10 12:12:00,83.8,61.4,30.13,SW,225,0.0,0.0,47,0.00,,,1.96,WUHU21623XXSP,2013-04-10 16:12:00,
2013-04-10 12:17:00,84.0,61.0,30.13,ENE,67,0.0,0.0,46,0.00,,,1.96,WUHU21623XXSP,2013-04-10 16:17:00,
2013-04-10 12:22:00,84.0,61.0,30.12,SW,225,0.0,0.0,45,0.00,,,1.96,WUHU21623XXSP,2013-04-10 16:22:00,
2013-04-10 12:27:00,84.0,60.4,30.12,WSW,247,0.0,0.0,45,0.00,,,1.96,WUHU21623XXSP,2013-04-10 16:27:00,
2013-04-10 12:32:00,84.7,60.4,30.12,WSW,247,0.7,0.7,44,0.00,,,1.96,WUHU21623XXSP,2013-04-10 16:32:00,
2013-04-10 12:37:00,84.9,60.5,30.12,WSW,247,0.0,0.7,44,0.00,,,1.96,WUHU21623XXSP,2013-04-10 16:37:00,
2013-04-10 12:42:00,85.1,60.7,30.12,WSW,247,0.0,0.7,44,0.00,,,1.96,WUHU21623XXSP,2013-04-10 16:42:00,
2013-04-10 12:47:00,85.6,60.6,30.11,WNW,292,0.0,0.0,43,0.00,,,1.96,WUHU21623XXSP,2013-04-10 16:47:00,
2013-04-10 12:52:00,85.8,60.7,30.11,NE,45,0.0,0.0,43,0.00,,,1.96,WUHU21623XXSP,2013-04-10 16:52:00,
2013-04-10 12:58:00,85.8,60.7,30.11,NE,45,0.0,0.0,43,0.00,,,1.96,WUHU21623XXSP,2013-04-10 16:58:00,
2013-04-10 13:03:00,85.8,60.7,30.11,West,270,0.0,0.0,43,0.00,,,1.96,WUHU21623XXSP,2013-04-10 17:03:00,
2013-04-10 13:08:00,85.8,60.1,30.11,West,270,0.0,0.0,42,0.00,,,1.96,WUHU21623XXSP,2013-04-10 17:08:00,
2013-04-10 13:13:00,86.7,60.9,30.11,NNE,22,0.0,0.0,42,0.00,,,1.96,WUHU21623XXSP,2013-04-10 17:13:00,
2013-04-10 13:18:00,87.1,61.2,30.11,North,0,0.0,0.0,42,0.00,,,1.96,WUHU21623XXSP,2013-04-10 17:18:00,
2013-04-10 13:23:00,87.6,61.1,30.11,West,270,0.0,0.0,41,0.00,,,1.96,WUHU21623XXSP,2013-04-10 17:23:00,
2013-04-10 13:28:00,88.2,60.9,30.10,North,0,0.0,0.0,40,0.00,,,1.96,WUHU21623XXSP,2013-04-10 17:28:00,
2013-04-10 13:33:00,88.5,61.2,30.10,SW,225,0.0,0.0,40,0.00,,,1.96,WUHU21623XXSP,2013-04-10 17:33:00,
2013-04-10 13:38:00,88.9,61.5,30.10,WSW,247,0.0,0.0,40,0.00,,,1.96,WUHU21623XXSP,2013-04-10 17:38:00,
2013-04-10 13:43:00,89.2,61.8,30.10,South,180,2.0,2.9,40,0.00,,,1.96,WUHU21623XXSP,2013-04-10 17:43:00,
2013-04-10 13:48:00,89.2,61.0,30.09,WSW,247,0.0,2.9,39,0.00,,,1.96,WUHU21623XXSP,2013-04-10 17:48:00,
2013-04-10 13:53:00,89.2,61.0,30.09,SSW,202,0.0,0.0,39,0.00,,,1.96,WUHU21623XXSP,2013-04-10 17:53:00,
2013-04-10 13:58:00,89.4,61.1,30.09,WSW,247,0.0,0.0,39,0.00,,,1.96,WUHU21623XXSP,2013-04-10 17:58:00,
2013-04-10 14:03:00,90.1,61.0,30.09,ENE,67,0.0,0.0,38,0.00,,,1.96,WUHU21623XXSP,2013-04-10 18:03:00,
2013-04-10 14:08:00,90.1,61.0,30.09,South,180,0.0,0.0,38,0.00,,,1.96,WUHU21623XXSP,2013-04-10 18:08:00,
2013-04-10 14:13:00,90.0,60.0,30.09,West,270,0.0,0.0,37,0.00,,,1.96,WUHU21623XXSP,2013-04-10 18:13:00,
2013-04-10 14:18:00,90.1,61.0,30.09,West,270,0.0,0.0,38,0.00,,,1.96,WUHU21623XXSP,2013-04-10 18:18:00,
2013-04-10 14:23:00,90.3,60.3,30.08,West,270,0.0,0.0,37,0.00,,,1.96,WUHU21623XXSP,2013-04-10 18:23:00,
2013-04-10 14:28:00,90.5,60.5,30.08,West,270,0.0,0.0,37,0.00,,,1.96,WUHU21623XXSP,2013-04-10 18:28:00,
2013-04-10 14:33:00,90.7,60.7,30.08,WSW,247,0.0,0.0,37,0.00,,,1.96,WUHU21623XXSP,2013-04-10 18:33:00,
2013-04-10 14:38:00,90.9,60.0,30.07,WSW,247,0.0,0.0,36,0.00,,,1.96,WUHU21623XXSP,2013-04-10 18:38:00,
2013-04-10 14:43:00,91.0,60.2,30.07,WSW,247,0.0,0.0,36,0.00,,,1.96,WUHU21623XXSP,2013-04-10 18:43:00,
2013-04-10 14:48:00,91.4,61.3,30.07,SSE,157,0.0,0.0,37,0.00,,,1.96,WUHU21623XXSP,2013-04-10 18:48:00,
2013-04-10 14:53:00,92.1,61.1,30.07,South,180,0.0,0.0,36,0.00,,,1.96,WUHU21623XXSP,2013-04-10 18:53:00,
2013-04-10 14:58:00,92.3,61.3,30.07,South,180,0.0,1.8,36,0.00,,,1.96,WUHU21623XXSP,2013-04-10 18:58:00,
2013-04-10 15:03:00,92.3,61.3,30.07,SE,135,0.0,1.8,36,0.00,,,1.96,WUHU21623XXSP,2013-04-10 19:03:00,
2013-04-10 15:08:00,92.3,60.5,30.07,SE,135,0.0,0.0,35,0.00,,,1.96,WUHU21623XXSP,2013-04-10 19:08:00,
2013-04-10 15:14:00,92.7,60.8,30.06,SW,225,0.0,0.0,35,0.00,,,1.96,WUHU21623XXSP,2013-04-10 19:14:00,
2013-04-10 15:19:00,92.8,60.9,30.07,SW,225,0.0,0.0,35,0.00,,,1.96,WUHU21623XXSP,2013-04-10 19:19:00,
2013-04-10 15:24:00,92.8,60.9,30.06,SSW,202,0.0,0.0,35,0.00,,,1.96,WUHU21623XXSP,2013-04-10 19:24:00,
2013-04-10 15:29:00,92.1,60.3,30.06,SW,225,0.0,0.0,35,0.00,,,1.96,WUHU21623XXSP,2013-04-10 19:29:00,
2013-04-10 15:34:00,91.2,60.4,30.05,WSW,247,0.0,0.0,36,0.00,,,1.96,WUHU21623XXSP,2013-04-10 19:34:00,
2013-04-10 15:39:00,91.4,59.7,30.05,WSW,247,0.0,0.0,35,0.00,,,1.96,WUHU21623XXSP,2013-04-10 19:39:00,
2013-04-10 15:44:00,91.4,60.5,30.04,South,180,0.0,0.0,36,0.00,,,1.96,WUHU21623XXSP,2013-04-10 19:44:00,
2013-04-10 15:49:00,91.4,59.7,30.04,WSW,247,0.0,0.0,35,0.00,,,1.96,WUHU21623XXSP,2013-04-10 19:49:00,
2013-04-10 15:54:00,91.0,59.4,30.04,WSW,247,0.0,0.0,35,0.00,,,1.96,WUHU21623XXSP,2013-04-10 19:54:00,
2013-04-10 15:59:00,90.7,59.9,30.04,SSW,202,0.0,0.0,36,0.00,,,1.96,WUHU21623XXSP,2013-04-10 19:59:00,
2013-04-10 16:04:00,91.2,60.4,30.04,SSE,157,0.7,0.7,36,0.00,,,1.96,WUHU21623XXSP,2013-04-10 20:04:00,
2013-04-10 16:09:00,91.0,60.2,30.03,WSW,247,0.0,0.7,36,0.00,,,1.96,WUHU21623XXSP,2013-04-10 20:09:00,
2013-04-10 16:14:00,90.0,59.2,30.03,WSW,247,0.0,0.0,36,0.00,,,1.96,WUHU21623XXSP,2013-04-10 20:14:00,
2013-04-10 16:19:00,89.8,59.1,30.02,WSW,247,0.0,0.0,36,0.00,,,1.96,WUHU21623XXSP,2013-04-10 20:19:00,
2013-04-10 16:24:00,90.1,58.6,30.02,WSW,247,0.0,0.0,35,0.00,,,1.96,WUHU21623XXSP,2013-04-10 20:24:00,
2013-04-10 16:29:00,90.5,59.7,30.02,SW,225,0.0,0.0,36,0.00,,,1.96,WUHU21623XXSP,2013-04-10 20:29:00,
2013-04-10 16:34:00,91.2,60.4,30.02,SSW,202,0.0,1.6,36,0.00,,,1.96,WUHU21623XXSP,2013-04-10 20:34:00,
2013-04-10 16:39:00,91.6,59.9,30.02,South,180,0.0,1.6,35,0.00,,,1.96,WUHU21623XXSP,2013-04-10 20:39:00,
2013-04-10 16:44:00,91.4,59.7,30.02,SW,225,0.0,1.8,35,0.00,,,1.96,WUHU21623XXSP,2013-04-10 20:44:00,
2013-04-10 16:49:00,91.2,59.6,30.02,SW,225,0.0,1.8,35,0.00,,,1.96,WUHU21623XXSP,2013-04-10 20:49:00,
2013-04-10 16:55:00,91.2,59.6,30.01,SSE,157,0.0,0.0,35,0.00,,,1.96,WUHU21623XXSP,2013-04-10 20:55:00,
2013-04-10 17:00:00,90.5,59.7,30.01,WSW,247,0.0,0.0,36,0.00,,,1.96,WUHU21623XXSP,2013-04-10 21:00:00,
2013-04-10 17:05:00,90.3,58.7,30.01,WSW,247,0.0,0.0,35,0.00,,,1.96,WUHU21623XXSP,2013-04-10 21:05:00,
2013-04-10 17:10:00,89.2,58.6,30.01,SSW,202,0.0,0.0,36,0.00,,,1.96,WUHU21623XXSP,2013-04-10 21:10:00,
2013-04-10 17:15:00,89.2,59.4,30.01,SW,225,0.0,0.0,37,0.00,,,1.96,WUHU21623XXSP,2013-04-10 21:15:00,
2013-04-10 17:20:00,89.2,58.6,30.01,WSW,247,0.0,0.0,36,0.00,,,1.96,WUHU21623XXSP,2013-04-10 21:20:00,
2013-04-10 17:25:00,89.2,59.4,30.01,WSW,247,0.0,0.0,37,0.00,,,1.96,WUHU21623XXSP,2013-04-10 21:25:00,
2013-04-10 17:30:00,89.2,58.6,30.01,South,180,0.0,0.0,36,0.00,,,1.96,WUHU21623XXSP,2013-04-10 21:30:00,
2013-04-10 17:35:00,89.1,58.4,30.00,South,180,2.0,2.0,36,0.00,,,1.96,WUHU21623XXSP,2013-04-10 21:35:00,
2013-04-10 17:40:00,88.5,58.0,30.00,SSE,157,0.0,2.0,36,0.00,,,1.96,WUHU21623XXSP,2013-04-10 21:40:00,
2013-04-10 17:45:00,88.2,57.7,30.00,South,180,0.0,2.0,36,0.00,,,1.96,WUHU21623XXSP,2013-04-10 21:45:00,
2013-04-10 17:50:00,88.0,57.5,30.00,SSW,202,0.0,2.0,36,0.00,,,1.96,WUHU21623XXSP,2013-04-10 21:50:00,
2013-04-10 17:55:00,88.0,57.5,30.00,SW,225,0.0,0.0,36,0.00,,,1.96,WUHU21623XXSP,2013-04-10 21:55:00,
2013-04-10 18:00:00,87.6,57.2,30.00,SW,225,0.0,0.0,36,0.00,,,1.96,WUHU21623XXSP,2013-04-10 22:00:00,
2013-04-10 18:05:00,87.1,56.8,30.00,SSE,157,2.9,2.9,36,0.00,,,1.96,WUHU21623XXSP,2013-04-10 22:05:00,
2013-04-10 18:10:00,86.7,56.4,30.00,South,180,2.7,3.4,36,0.00,,,1.96,WUHU21623XXSP,2013-04-10 22:10:00,
2013-04-10 18:15:00,86.2,56.0,30.00,SSE,157,0.0,3.4,36,0.00,,,1.96,WUHU21623XXSP,2013-04-10 22:15:00,
2013-04-10 18:20:00,85.3,55.5,30.00,South,180,0.0,2.2,37,0.00,,,1.96,WUHU21623XXSP,2013-04-10 22:20:00,
2013-04-10 18:25:00,84.9,55.7,30.00,South,180,3.1,3.1,37,0.00,,,1.96,WUHU21623XXSP,2013-04-10 22:25:00,
2013-04-10 18:30:00,84.6,56.1,30.00,SSE,157,0.0,3.1,38,0.00,,,1.96,WUHU21623XXSP,2013-04-10 22:30:00,
2013-04-10 18:35:00,84.0,55.8,30.00,SSE,157,7.6,7.6,38,0.00,,,1.96,WUHU21623XXSP,2013-04-10 22:35:00,
2013-04-10 18:40:00,83.7,55.5,30.00,South,180,0.0,7.6,39,0.00,,,1.96,WUHU21623XXSP,2013-04-10 22:40:00,
2013-04-10 18:46:00,83.5,55.9,30.00,SSE,157,1.1,7.6,39,0.00,,,1.96,WUHU21623XXSP,2013-04-10 22:46:00,
2013-04-10 18:51:00,82.9,55.5,29.99,SSE,157,0.0,1.1,39,0.00,,,1.96,WUHU21623XXSP,2013-04-10 22:51:00,
2013-04-10 18:56:00,82.4,55.0,30.00,SSE,157,5.4,5.4,39,0.00,,,1.96,WUHU21623XXSP,2013-04-10 22:56:00,
2013-04-10 19:01:00,82.0,55.6,30.00,SSE,157,1.8,5.4,40,0.00,,,1.96,WUHU21623XXSP,2013-04-10 23:01:00,
2013-04-10 19:06:00,81.5,55.0,29.99,SSE,157,0.0,6.3,40,0.00,,,1.96,WUHU21623XXSP,2013-04-10 23:06:00,
2013-04-10 19:11:00,81.1,54.6,29.99,SE,135,0.0,1.8,40,0.00,,,1.96,WUHU21623XXSP,2013-04-10 23:11:00,
2013-04-10 19:16:00,80.4,54.9,29.99,SSE,157,2.0,2.0,41,0.00,,,1.96,WUHU21623XXSP,2013-04-10 23:16:00,
2013-04-10 19:21:00,80.2,54.6,29.99,SSE,157,0.0,2.0,42,0.00,,,1.96,WUHU21623XXSP,2013-04-10 23:21:00,
2013-04-10 19:27:00,79.7,54.6,29.99,SSE,157,0.0,0.0,42,0.00,,,1.96,WUHU21623XXSP,2013-04-10 23:27:00,
2013-04-10 19:32:00,79.0,54.5,29.98,SSE,157,0.0,0.0,43,0.00,,,1.96,WUHU21623XXSP,2013-04-10 23:32:00,
2013-04-10 19:37:00,78.6,54.2,29.98,South,180,5.6,5.6,43,0.00,,,1.96,WUHU21623XXSP,2013-04-10 23:37:00,
2013-04-10 19:42:00,78.1,54.3,29.98,SSE,157,0.0,5.6,44,0.00,,,1.96,WUHU21623XXSP,2013-04-10 23:42:00,
2013-04-10 19:47:00,77.7,54.6,29.99,SSE,157,2.9,2.9,45,0.00,,,1.96,WUHU21623XXSP,2013-04-10 23:47:00,
2013-04-10 19:52:00,77.4,54.3,29.99,SSE,157,1.3,2.9,45,0.00,,,1.96,WUHU21623XXSP,2013-04-10 23:52:00,
2013-04-10 19:57:00,76.8,54.4,29.98,SSE,157,0.9,2.2,46,0.00,,,1.96,WUHU21623XXSP,2013-04-10 23:57:00,
2013-04-10 20:02:00,76.5,54.1,29.98,SSE,157,0.0,3.4,46,0.00,,,1.96,WUHU21623XXSP,2013-04-11 00:02:00,
2013-04-10 20:07:00,75.9,54.2,29.98,SSE,157,0.7,3.4,47,0.00,,,1.96,WUHU21623XXSP,2013-04-11 00:07:00,
2013-04-10 20:12:00,75.4,53.9,29.98,SSE,157,0.0,0.7,47,0.00,,,1.96,WUHU21623XXSP,2013-04-11 00:12:00,
2013-04-10 20:17:00,75.0,53.4,29.98,SE,135,0.0,0.7,47,0.00,,,1.96,WUHU21623XXSP,2013-04-11 00:17:00,
2013-04-10 20:22:00,75.0,53.4,29.98,SE,135,0.0,0.0,47,0.00,,,1.96,WUHU21623XXSP,2013-04-11 00:22:00,
2013-04-10 20:27:00,74.5,53.5,29.98,SE,135,0.0,0.0,48,0.00,,,1.96,WUHU21623XXSP,2013-04-11 00:27:00,
2013-04-10 20:32:00,74.1,53.1,29.99,SE,135,0.0,0.0,48,0.00,,,1.96,WUHU21623XXSP,2013-04-11 00:32:00,
2013-04-10 20:38:00,73.6,52.8,29.99,SE,135,0.0,0.0,48,0.00,,,1.96,WUHU21623XXSP,2013-04-11 00:38:00,
2013-04-10 20:43:00,73.4,53.0,29.98,SSE,157,0.0,0.0,49,0.00,,,1.96,WUHU21623XXSP,2013-04-11 00:43:00,
2013-04-10 20:48:00,73.2,52.8,29.99,SSE,157,0.0,0.0,49,0.00,,,1.96,WUHU21623XXSP,2013-04-11 00:48:00,
2013-04-10 20:53:00,72.9,52.5,29.99,SSE,157,0.0,0.0,49,0.00,,,1.96,WUHU21623XXSP,2013-04-11 00:53:00,
2013-04-10 20:58:00,72.7,53.0,29.99,SSE,157,0.0,0.0,50,0.00,,,1.96,WUHU21623XXSP,2013-04-11 00:58:00,
2013-04-10 21:03:00,72.3,52.6,29.99,SSE,157,0.0,0.0,50,0.00,,,1.96,WUHU21623XXSP,2013-04-11 01:03:00,
2013-04-10 21:08:00,72.1,52.5,29.99,SSE,157,0.0,0.0,50,0.00,,,1.96,WUHU21623XXSP,2013-04-11 01:08:00,
2013-04-10 21:13:00,72.0,52.3,29.99,SE,135,0.0,0.0,50,0.00,,,1.96,WUHU21623XXSP,2013-04-11 01:13:00,
2013-04-10 21:18:00,71.8,52.6,29.98,SE,135,0.0,0.0,51,0.00,,,1.96,WUHU21623XXSP,2013-04-11 01:18:00,
2013-04-10 21:23:00,71.8,52.6,29.98,SE,135,0.0,0.0,51,0.00,,,1.96,WUHU21623XXSP,2013-04-11 01:23:00,
2013-04-10 21:28:00,71.4,52.3,29.97,SE,135,0.0,0.0,51,0.00,,,1.96,WUHU21623XXSP,2013-04-11 01:28:00,
2013-04-10 21:33:00,71.2,52.7,29.97,SSE,157,0.0,0.0,52,0.00,,,1.96,WUHU21623XXSP,2013-04-11 01:33:00,
2013-04-10 21:38:00,71.1,52.5,29.98,SE,135,0.0,0.0,52,0.00,,,1.96,WUHU21623XXSP,2013-04-11 01:38:00,
2013-04-10 21:43:00,70.9,52.3,29.98,SE,135,0.0,0.0,53,0.00,,,1.96,WUHU21623XXSP,2013-04-11 01:43:00,
2013-04-10 21:48:00,70.7,52.7,29.98,SSE,157,3.1,3.1,53,0.00,,,1.96,WUHU21623XXSP,2013-04-11 01:48:00,
2013-04-10 21:53:00,70.7,53.2,29.98,SE,135,0.0,3.1,54,0.00,,,1.96,WUHU21623XXSP,2013-04-11 01:53:00,
2013-04-10 21:58:00,70.7,53.2,29.97,SE,135,0.0,3.1,54,0.00,,,1.96,WUHU21623XXSP,2013-04-11 01:58:00,
2013-04-10 22:04:00,70.7,53.2,29.97,SE,135,0.0,0.0,54,0.00,,,1.96,WUHU21623XXSP,2013-04-11 02:04:00,
2013-04-10 22:09:00,70.7,53.2,29.97,SE,135,0.0,0.0,54,0.00,,,1.96,WUHU21623XXSP,2013-04-11 02:09:00,
2013-04-10 22:14:00,70.5,53.5,29.98,SE,135,0.0,0.0,55,0.00,,,1.96,WUHU21623XXSP,2013-04-11 02:14:00,
2013-04-10 22:19:00,70.3,53.4,29.97,SE,135,0.0,0.0,55,0.00,,,1.96,WUHU21623XXSP,2013-04-11 02:19:00,
2013-04-10 22:24:00,70.3,53.4,29.97,SE,135,0.0,0.0,55,0.00,,,1.96,WUHU21623XXSP,2013-04-11 02:24:00,
2013-04-10 22:29:00,70.2,53.2,29.97,SE,135,0.0,0.0,55,0.00,,,1.96,WUHU21623XXSP,2013-04-11 02:29:00,
2013-04-10 22:34:00,70.0,53.0,29.97,SE,135,0.0,0.0,55,0.00,,,1.96,WUHU21623XXSP,2013-04-11 02:34:00,
2013-04-10 22:39:00,69.8,53.0,29.97,SSE,157,0.0,0.0,56,0.00,,,1.96,WUHU21623XXSP,2013-04-11 02:39:00,
2013-04-10 22:44:00,69.8,53.4,29.97,SE,135,0.0,0.0,56,0.00,,,1.96,WUHU21623XXSP,2013-04-11 02:44:00,
2013-04-10 22:49:00,69.6,53.2,29.98,SE,135,0.0,0.0,56,0.00,,,1.96,WUHU21623XXSP,2013-04-11 02:49:00,
2013-04-10 22:54:00,69.6,53.2,29.98,SSE,157,0.0,0.0,56,0.00,,,1.96,WUHU21623XXSP,2013-04-11 02:54:00,
2013-04-10 22:59:00,69.6,53.2,29.98,SSE,157,0.0,0.0,56,0.00,,,1.96,WUHU21623XXSP,2013-04-11 02:59:00,
2013-04-10 23:04:00,69.4,53.0,29.98,SSE,157,0.0,0.0,56,0.00,,,1.96,WUHU21623XXSP,2013-04-11 03:04:00,
2013-04-10 23:09:00,69.3,52.9,29.98,SSE,157,0.0,0.0,56,0.00,,,1.96,WUHU21623XXSP,2013-04-11 03:09:00,
2013-04-10 23:14:00,69.3,52.9,29.98,SE,135,0.0,0.0,56,0.00,,,1.96,WUHU21623XXSP,2013-04-11 03:14:00,
2013-04-10 23:19:00,69.1,52.7,29.98,SE,135,0.0,0.0,56,0.00,,,1.96,WUHU21623XXSP,2013-04-11 03:19:00,
2013-04-10 23:24:00,69.1,53.2,29.97,SSE,157,0.0,0.0,57,0.00,,,1.96,WUHU21623XXSP,2013-04-11 03:24:00,
2013-04-10 23:30:00,69.1,52.7,29.98,SE,135,0.0,0.0,56,0.00,,,1.96,WUHU21623XXSP,2013-04-11 03:30:00,
2013-04-10 23:35:00,68.9,52.5,29.98,SSE,157,0.0,0.0,56,0.00,,,1.96,WUHU21623XXSP,2013-04-11 03:35:00,
2013-04-10 23:40:00,68.7,52.8,29.98,SE,135,0.0,0.0,57,0.00,,,1.96,WUHU21623XXSP,2013-04-11 03:40:00,
2013-04-10 23:45:00,68.7,52.8,29.98,SE,135,0.0,0.0,57,0.00,,,1.96,WUHU21623XXSP,2013-04-11 03:45:00,
2013-04-10 23:50:00,68.5,52.7,29.97,SE,135,0.0,0.0,57,0.00,,,1.96,WUHU21623XXSP,2013-04-11 03:50:00,
2013-04-10 23:55:00,68.4,52.7,29.97,SE,135,0.0,0.0,57,0.00,,,1.96,WUHU21623XXSP,2013-04-11 03:55:00,